Time;durP1;ratioP1;P1;durP2;ratioP2;P2;SDS_P1;SDS_P2;PMS_P1;PMS_P2;Temp;Humidity;BMP_temperature;BMP_pressure;BME280_temperature;BME280_humidity;BME280_pressure;Samples;Min_cycle;Max_cycle;Signal;HPM_P1;HPM_P2
2021/09/10 00:00:00;;;;;;;30.57;22.93;;;;;;;17.67;100.00;100618.41;7399408;19;20391;-56
2021/09/10 00:02:29;;;;;;;43.80;29.10;;;;;;;17.66;100.00;100617.56;7394254;19;20418;-54
2021/09/10 00:05:01;;;;;;;23.10;18.27;;;;;;;17.68;100.00;100610.59;7399327;19;20451;-57
2021/09/10 00:07:31;;;;;;;28.13;19.43;;;;;;;17.73;100.00;100618.47;7395315;19;20524;-56
2021/09/10 00:10:00;;;;;;;20.63;15.40;;;;;;;17.73;100.00;100620.22;7405208;19;20402;-55
2021/09/10 00:12:30;;;;;;;30.43;22.67;;;;;;;17.81;100.00;100618.56;7400528;19;20474;-54
2021/09/10 00:14:59;;;;;;;45.67;32.07;;;;;;;17.81;100.00;100610.72;7406591;19;20401;-57
2021/09/10 00:17:29;;;;;;;27.97;20.53;;;;;;;17.79;100.00;100617.69;7401835;19;20881;-56
2021/09/10 00:19:58;;;;;;;24.97;19.10;;;;;;;17.80;100.00;100624.63;7406634;19;20392;-53
2021/09/10 00:22:30;;;;;;;37.60;26.13;;;;;;;17.80;100.00;100620.28;7401130;19;20553;-58
2021/09/10 00:25:00;;;;;;;40.07;27.83;;;;;;;17.86;100.00;100610.75;7406984;19;20392;-58
2021/09/10 00:27:29;;;;;;;31.10;22.77;;;;;;;17.88;100.00;100607.31;7400863;19;20418;-58
2021/09/10 00:29:59;;;;;;;40.90;27.47;;;;;;;17.85;100.00;100611.63;7404378;19;20677;-56
2021/09/10 00:32:28;;;;;;;39.70;27.30;;;;;;;17.90;100.00;100609.94;7400099;19;20486;-59
2021/09/10 00:34:58;;;;;;;45.73;30.50;;;;;;;17.97;100.00;100605.63;7405811;19;20387;-58
2021/09/10 00:37:27;;;;;;;59.63;34.10;;;;;;;17.94;100.00;100607.38;7400741;19;20422;-54
2021/09/10 00:39:59;;;;;;;33.93;22.60;;;;;;;17.93;100.00;100603.00;7405833;19;20859;-56
2021/09/10 00:42:29;;;;;;;36.67;26.03;;;;;;;17.95;100.00;100598.66;7400697;19;20407;-56
2021/09/10 00:44:58;;;;;;;54.03;32.83;;;;;;;17.97;100.00;100597.81;7405726;19;20467;-54
2021/09/10 00:47:28;;;;;;;47.50;31.37;;;;;;;18.03;100.00;100600.47;7400723;19;20415;-58
2021/09/10 00:49:57;;;;;;;34.37;22.40;;;;;;;18.00;100.00;100600.47;7403481;19;20864;-59
2021/09/10 00:52:27;;;;;;;16.57;12.90;;;;;;;17.71;100.00;100604.56;7400392;19;20490;-55
2021/09/10 00:54:59;;;;;;;22.80;16.13;;;;;;;17.70;100.00;100601.91;7405408;19;20713;-56
2021/09/10 00:57:29;;;;;;;19.73;13.77;;;;;;;17.73;100.00;100602.81;7400080;19;20441;-54
2021/09/10 00:59:58;;;;;;;21.20;14.50;;;;;;;17.71;100.00;100601.94;7405006;19;20854;-55
2021/09/10 01:02:28;;;;;;;21.10;14.40;;;;;;;17.73;100.00;100607.19;7399271;19;20450;-57
2021/09/10 01:04:58;;;;;;;22.97;15.40;;;;;;;17.73;100.00;100609.78;7405061;19;20444;-53
2021/09/10 01:07:28;;;;;;;16.73;13.93;;;;;;;17.60;100.00;100619.22;7400079;19;20422;-56
2021/09/10 01:10:00;;;;;;;20.50;16.13;;;;;;;17.63;100.00;100617.50;7402988;19;20395;-54
2021/09/10 01:12:30;;;;;;;19.23;14.67;;;;;;;17.76;100.00;100612.41;7399543;19;20743;-57
2021/09/10 01:14:59;;;;;;;29.67;15.70;;;;;;;17.87;100.00;100612.50;7404468;19;20475;-59
2021/09/10 01:17:29;;;;;;;28.53;17.07;;;;;;;17.92;100.00;100613.44;7395703;19;20419;-50
2021/09/10 01:19:58;;;;;;;19.17;14.50;;;;;;;17.97;100.00;100608.25;7402707;19;20392;-55
2021/09/10 01:22:28;;;;;;;33.10;23.60;;;;;;;18.02;100.00;100603.94;7395997;19;20459;-56
2021/09/10 01:25:18;;;;;;;33.73;23.73;;;;;;;18.06;100.00;100606.63;7404945;19;20436;-52
2021/09/10 01:27:50;;;;;;;34.60;23.40;;;;;;;18.11;100.00;100617.13;7395390;19;20474;-53
2021/09/10 01:30:21;;;;;;;63.07;39.53;;;;;;;18.14;100.00;100616.28;7403044;19;20467;-50
2021/09/10 01:32:50;;;;;;;55.63;37.23;;;;;;;18.14;100.00;100614.53;7398115;19;20865;-57
2021/09/10 01:35:20;;;;;;;27.70;19.63;;;;;;;18.09;100.00;100616.22;7403526;19;20753;-54
2021/09/10 01:37:50;;;;;;;41.23;26.60;;;;;;;18.15;100.00;100616.25;7399893;19;20752;-55
2021/09/10 01:40:23;;;;;;;55.60;34.83;;;;;;;18.19;100.00;100610.22;7403806;19;20659;-56
2021/09/10 01:42:53;;;;;;;50.73;33.53;;;;;;;18.18;100.00;100615.41;7398389;19;20455;-47
2021/09/10 01:45:23;;;;;;;43.50;31.37;;;;;;;18.18;100.00;100605.88;7403594;19;20447;-56
2021/09/10 01:47:52;;;;;;;26.10;20.00;;;;;;;18.09;100.00;100621.44;7397426;19;20455;-51
2021/09/10 01:50:25;;;;;;;29.03;21.07;;;;;;;18.11;100.00;100619.72;7402657;19;20395;-52
2021/09/10 01:52:55;;;;;;;28.53;21.00;;;;;;;18.14;100.00;100609.31;7398000;19;20486;-54
2021/09/10 01:55:30;;;;;;;22.63;17.80;;;;;;;18.11;100.00;100624.06;7402308;19;20395;-51
2021/09/10 01:57:59;;;;;;;25.73;19.87;;;;;;;18.12;100.00;100621.47;7399597;19;20410;-56
2021/09/10 02:00:29;;;;;;;34.87;25.03;;;;;;;18.16;100.00;100617.16;7403053;19;20729;-56
2021/09/10 02:02:58;;;;;;;23.63;18.53;;;;;;;18.15;100.00;100615.41;7397543;19;20406;-52
2021/09/10 02:05:28;;;;;;;23.03;18.60;;;;;;;18.13;100.00;100625.84;7402513;19;20436;-56
2021/09/10 02:07:58;;;;;;;23.90;17.43;;;;;;;18.11;100.00;100617.13;7398208;19;20490;-53
2021/09/10 02:10:30;;;;;;;30.60;19.17;;;;;;;18.13;100.00;100620.59;7402127;19;20451;-56
2021/09/10 02:13:00;;;;;;;24.83;15.87;;;;;;;18.11;100.00;100624.06;7397392;19;20396;-55
2021/09/10 02:15:29;;;;;;;23.03;17.10;;;;;;;18.06;100.00;100631.88;7402330;19;20446;-52
2021/09/10 02:17:59;;;;;;;21.73;16.30;;;;;;;18.04;100.00;100623.09;7397538;19;20418;-51
2021/09/10 02:20:28;;;;;;;25.90;16.90;;;;;;;18.04;100.00;100628.31;7402285;19;20471;-56
2021/09/10 02:22:58;;;;;;;21.10;16.70;;;;;;;17.95;100.00;100635.22;7396476;19;20486;-55
2021/09/10 02:25:30;;;;;;;29.10;17.00;;;;;;;18.02;100.00;100635.25;7402001;19;20388;-53
2021/09/10 02:27:59;;;;;;;24.00;18.50;;;;;;;18.13;100.00;100627.56;7400353;19;20796;-52
2021/09/10 02:30:29;;;;;;;23.63;17.37;;;;;;;18.07;100.00;100628.38;7402014;19;20460;-54
2021/09/10 02:32:58;;;;;;;20.13;16.07;;;;;;;17.97;100.00;100632.63;7396830;19;20439;-55
2021/09/10 02:35:28;;;;;;;20.50;16.70;;;;;;;17.85;100.00;100637.72;7400929;19;20840;-56
2021/09/10 02:37:57;;;;;;;25.20;19.30;;;;;;;18.01;100.00;100633.53;7394434;19;20563;-57
2021/09/10 02:40:29;;;;;;;23.87;18.20;;;;;;;18.02;100.00;100635.25;7401039;19;20404;-54
2021/09/10 02:42:59;;;;;;;25.80;18.43;;;;;;;18.03;100.00;100627.47;7392426;19;20435;-53
2021/09/10 02:45:28;;;;;;;27.93;18.47;;;;;;;18.05;100.00;100628.38;7400608;19;20404;-51
2021/09/10 02:47:58;;;;;;;27.13;19.77;;;;;;;17.95;100.00;100635.22;7393964;19;20428;-58
2021/09/10 02:50:28;;;;;;;22.90;17.03;;;;;;;17.99;100.00;100630.03;7401241;19;20406;-53
2021/09/10 02:52:57;;;;;;;22.73;16.00;;;;;;;17.72;100.00;100652.38;7392843;19;20474;-50
2021/09/10 02:55:29;;;;;;;19.77;16.30;;;;;;;17.79;100.00;100651.59;7400378;19;20661;-57
2021/09/10 02:57:59;;;;;;;25.20;17.40;;;;;;;17.67;100.00;100660.16;7393224;19;20415;-49
2021/09/10 03:00:28;;;;;;;23.43;17.20;;;;;;;17.67;100.00;100661.03;7401083;19;20394;-49
2021/09/10 03:02:58;;;;;;;22.67;17.00;;;;;;;17.65;100.00;100667.94;7395039;19;20407;-53
2021/09/10 03:05:28;;;;;;;23.63;17.40;;;;;;;17.69;100.00;100668.84;7399922;19;20416;-55
2021/09/10 03:07:58;;;;;;;23.30;18.70;;;;;;;17.75;100.00;100662.84;7396837;19;20423;-52
2021/09/10 03:10:31;;;;;;;27.20;18.60;;;;;;;17.78;100.00;100662.88;7400581;19;20396;-52
2021/09/10 03:13:00;;;;;;;27.83;18.40;;;;;;;17.86;100.00;100660.34;7396305;19;20487;-53
2021/09/10 03:15:30;;;;;;;32.83;21.23;;;;;;;17.93;100.00;100662.16;7399720;19;20395;-48
2021/09/10 03:17:59;;;;;;;30.23;19.27;;;;;;;17.99;100.00;100663.97;7395817;19;20419;-56
2021/09/10 03:20:29;;;;;;;27.60;20.20;;;;;;;18.08;100.00;100656.25;7400506;19;20395;-58
2021/09/10 03:22:58;;;;;;;28.47;20.87;;;;;;;18.11;100.00;100656.28;7395331;19;20422;-53
2021/09/10 03:25:30;;;;;;;28.27;20.80;;;;;;;18.15;100.00;100654.56;7399360;19;20388;-59
2021/09/10 03:28:00;;;;;;;32.53;21.30;;;;;;;18.16;100.00;100657.16;7396437;19;20423;-52
2021/09/10 03:30:29;;;;;;;27.63;20.80;;;;;;;18.18;100.00;100660.69;7400223;19;20402;-52
2021/09/10 03:32:59;;;;;;;27.57;20.20;;;;;;;18.19;100.00;100659.81;7394702;19;20415;-55
2021/09/10 03:35:28;;;;;;;30.03;21.93;;;;;;;18.19;100.00;100662.44;7398032;19;20394;-56
2021/09/10 03:37:58;;;;;;;28.57;21.40;;;;;;;18.21;100.00;100658.09;7395965;19;20491;-57
2021/09/10 03:40:35;;;;;;;30.43;22.40;;;;;;;18.22;100.00;100648.53;7399859;19;20394;-54
2021/09/10 03:43:05;;;;;;;29.93;21.50;;;;;;;18.28;100.00;100658.13;7393068;19;20414;-50
2021/09/10 03:45:35;;;;;;;29.10;21.87;;;;;;;18.30;100.00;100657.28;7398774;19;20392;-56
2021/09/10 03:48:05;;;;;;;30.23;23.03;;;;;;;18.35;100.00;100660.81;7395787;19;20411;-52
2021/09/10 03:50:34;;;;;;;38.50;24.50;;;;;;;18.42;100.00;100653.94;7399650;19;20459;-55
2021/09/10 03:53:04;;;;;;;33.20;23.83;;;;;;;18.42;100.00;100658.25;7393560;19;20415;-55
2021/09/10 03:55:36;;;;;;;37.50;24.70;;;;;;;18.51;100.00;100658.31;7398302;19;20391;-56
2021/09/10 03:58:06;;;;;;;35.97;25.60;;;;;;;18.52;100.00;100659.19;7395143;19;20421;-56
2021/09/10 04:00:35;;;;;;;37.17;25.50;;;;;;;18.54;100.00;100654.84;7399182;19;20456;-55
2021/09/10 04:03:05;;;;;;;33.37;24.10;;;;;;;18.60;100.00;100655.78;7393292;19;20419;-51
2021/09/10 04:05:35;;;;;;;36.63;26.83;;;;;;;18.69;100.00;100657.59;7398265;19;20400;-52
2021/09/10 04:08:05;;;;;;;39.67;26.83;;;;;;;18.68;100.00;100647.13;7391746;19;20890;-57
2021/09/10 04:10:37;;;;;;;39.23;27.80;;;;;;;18.66;100.00;100647.09;7398085;19;20398;-54
2021/09/10 04:13:07;;;;;;;38.60;27.63;;;;;;;18.66;100.00;100654.09;7388989;19;20471;-51
2021/09/10 04:15:36;;;;;;;41.13;27.83;;;;;;;18.68;100.00;100652.34;7398009;19;20396;-51
2021/09/10 04:18:06;;;;;;;44.30;29.77;;;;;;;18.68;100.00;100654.97;7391436;19;20427;-52
2021/09/10 04:20:36;;;;;;;44.37;28.07;;;;;;;18.68;100.00;100662.78;7400030;19;20388;-51
2021/09/10 04:23:05;;;;;;;42.10;27.97;;;;;;;18.70;100.00;100654.09;7389849;19;20503;-57
2021/09/10 04:25:39;;;;;;;42.20;28.20;;;;;;;18.69;100.00;100657.59;7397450;19;20388;-51
2021/09/10 04:28:10;;;;;;;49.23;30.67;;;;;;;18.67;100.00;100667.13;7391165;19;20874;-52
2021/09/10 04:30:39;;;;;;;51.23;31.40;;;;;;;18.59;100.00;100666.22;7397525;19;20448;-59
2021/09/10 04:33:09;;;;;;;45.00;30.60;;;;;;;18.63;100.00;100665.38;7385925;19;20435;-59
2021/09/10 04:35:38;;;;;;;46.30;30.73;;;;;;;18.61;100.00;100662.75;7397139;19;20395;-53
2021/09/10 04:38:08;;;;;;;45.30;32.30;;;;;;;18.64;100.00;100672.34;7390150;19;20684;-55
2021/09/10 04:40:40;;;;;;;50.80;33.57;;;;;;;18.65;100.00;100673.25;7398182;19;20872;-57
2021/09/10 04:43:10;;;;;;;55.53;35.67;;;;;;;18.63;100.00;100679.31;7389567;19;20526;-53
2021/09/10 04:45:39;;;;;;;59.53;38.27;;;;;;;18.65;100.00;100684.53;7397045;19;20439;-52
2021/09/10 04:48:09;;;;;;;73.67;41.67;;;;;;;18.54;100.00;100705.38;7389768;19;20439;-54
2021/09/10 04:50:39;;;;;;;76.87;42.40;;;;;;;18.27;100.00;100724.28;7397941;19;20387;-57
2021/09/10 04:53:08;;;;;;;66.33;42.87;;;;;;;18.22;100.00;100737.31;7388946;19;20486;-53
2021/09/10 04:55:41;;;;;;;70.50;43.37;;;;;;;18.06;100.00;100752.78;7401194;19;20702;-57
2021/09/10 04:58:10;;;;;;;87.83;45.90;;;;;;;17.94;100.00;100763.06;7397832;19;20415;-57
2021/09/10 05:00:40;;;;;;;79.17;46.80;;;;;;;17.86;100.00;100765.63;7404934;19;20391;-53
2021/09/10 05:03:09;;;;;;;80.73;47.03;;;;;;;17.80;100.00;100758.56;7395554;19;20423;-60
2021/09/10 05:05:39;;;;;;;83.17;48.03;;;;;;;17.67;100.00;100762.78;7404599;19;20391;-58
2021/09/10 05:08:09;;;;;;;88.17;49.23;;;;;;;17.59;100.00;100761.78;7397334;19;20419;-51
2021/09/10 05:10:41;;;;;;;95.77;52.00;;;;;;;17.65;100.00;100767.09;7404754;19;20459;-51
2021/09/10 05:13:10;;;;;;;97.23;51.33;;;;;;;17.65;100.00;100769.69;7395270;19;20415;-49
2021/09/10 05:15:40;;;;;;;94.40;53.07;;;;;;;17.64;100.00;100777.53;7403566;19;20487;-56
2021/09/10 05:18:09;;;;;;;105.63;54.13;;;;;;;17.66;100.00;100779.28;7397084;19;20419;-50
2021/09/10 05:20:40;;;;;;;116.27;57.67;;;;;;;17.80;100.00;100789.03;7404459;19;20447;-57
2021/09/10 05:23:09;;;;;;;95.60;53.70;;;;;;;17.84;100.00;100793.41;7394092;19;20414;-52
2021/09/10 05:25:41;;;;;;;104.00;55.07;;;;;;;17.92;100.00;100794.41;7402992;19;20405;-60
2021/09/10 05:28:11;;;;;;;102.80;54.30;;;;;;;17.98;100.00;100792.69;7396953;19;20417;-50
2021/09/10 05:30:40;;;;;;;104.97;55.70;;;;;;;18.04;100.00;100785.81;7404115;19;20666;-56
2021/09/10 05:33:10;;;;;;;91.10;49.63;;;;;;;18.10;100.00;100782.41;7394721;19;20491;-53
2021/09/10 05:35:39;;;;;;;92.30;52.10;;;;;;;18.13;100.00;100782.47;7402781;19;20850;-54
2021/09/10 05:38:08;;;;;;;97.87;52.57;;;;;;;17.97;100.00;100785.72;7397694;19;20425;-55
2021/09/10 05:40:40;;;;;;;95.60;51.77;;;;;;;17.85;100.00;100789.97;7403652;19;20470;-49
2021/09/10 05:43:10;;;;;;;97.97;53.40;;;;;;;17.98;100.00;100800.53;7393880;19;20499;-56
2021/09/10 05:45:39;;;;;;;98.80;54.90;;;;;;;18.05;100.00;100798.03;7402276;19;20869;-56
2021/09/10 05:48:09;;;;;;;92.53;48.87;;;;;;;18.21;100.00;100796.47;7396117;19;20423;-58
2021/09/10 05:50:38;;;;;;;101.87;56.10;;;;;;;18.15;100.00;100792.94;7403103;19;20448;-52
2021/09/10 05:53:09;;;;;;;98.03;51.80;;;;;;;18.13;100.00;100792.91;7395274;19;20430;-55
2021/09/10 05:55:42;;;;;;;108.43;57.30;;;;;;;18.15;100.00;100783.34;7401910;19;20448;-53
2021/09/10 05:58:11;;;;;;;96.17;53.57;;;;;;;18.15;100.00;100783.34;7391042;19;20422;-57
2021/09/10 06:00:41;;;;;;;96.60;52.80;;;;;;;18.16;100.00;100790.31;7402424;19;20391;-56
2021/09/10 06:03:11;;;;;;;90.87;51.60;;;;;;;18.10;100.00;100784.16;7393498;19;20554;-57
2021/09/10 06:05:41;;;;;;;93.30;53.23;;;;;;;18.11;100.00;100802.47;7401093;19;20400;-57
2021/09/10 06:08:10;;;;;;;100.67;53.93;;;;;;;18.07;100.00;100795.44;7395739;19;20415;-57
2021/09/10 06:10:45;;;;;;;88.13;50.83;;;;;;;18.10;100.00;100803.31;7402815;19;20641;-54
2021/09/10 06:13:19;;;;;;;88.40;50.13;;;;;;;18.18;100.00;100799.06;7399714;19;20427;-54
2021/09/10 06:15:48;;;;;;;110.50;55.60;;;;;;;18.26;100.00;100795.66;7401552;19;20394;-56
2021/09/10 06:18:18;;;;;;;99.47;54.37;;;;;;;18.20;100.00;100799.94;7400808;19;20694;-55
2021/09/10 06:20:47;;;;;;;98.13;52.20;;;;;;;18.10;100.00;100805.91;7402479;19;20404;-56
2021/09/10 06:23:17;;;;;;;92.63;52.63;;;;;;;17.97;100.00;100819.66;7399295;19;20616;-56
2021/09/10 06:25:49;;;;;;;87.97;51.50;;;;;;;17.89;100.00;100824.81;7401339;19;20400;-60
2021/09/10 06:28:18;;;;;;;120.07;64.20;;;;;;;17.89;100.00;100830.00;7402964;19;20443;-56
2021/09/10 06:30:48;;;;;;;105.00;53.87;;;;;;;17.76;100.00;100853.34;7402078;19;20846;-52
2021/09/10 06:33:17;;;;;;;110.07;56.33;;;;;;;17.67;100.00;100869.75;7399374;19;20407;-54
2021/09/10 06:35:47;;;;;;;113.73;57.97;;;;;;;17.68;100.00;100884.53;7400963;19;20451;-55
2021/09/10 06:38:17;;;;;;;121.33;59.87;;;;;;;17.68;100.00;100888.84;7400021;19;20415;-55
2021/09/10 06:40:49;;;;;;;116.43;57.93;;;;;;;17.70;100.00;100896.72;7401736;19;20465;-57
2021/09/10 06:43:18;;;;;;;120.20;61.40;;;;;;;17.74;100.00;100893.31;7399289;19;20539;-57
2021/09/10 06:45:48;;;;;;;123.17;57.33;;;;;;;17.69;100.00;100895.81;7400681;19;20391;-57
2021/09/10 06:48:17;;;;;;;137.20;61.53;;;;;;;17.61;100.00;100906.16;7400629;19;20431;-56
2021/09/10 06:50:47;;;;;;;134.33;60.53;;;;;;;17.50;100.00;100906.03;7401477;19;20391;-58
2021/09/10 06:53:16;;;;;;;140.13;57.80;;;;;;;17.35;100.00;100934.44;7398751;19;20442;-58
2021/09/10 06:55:48;;;;;;;127.73;60.17;;;;;;;17.37;100.00;100944.03;7400445;19;20867;-53
2021/09/10 06:58:18;;;;;;;145.20;67.80;;;;;;;17.51;100.00;100938.19;7399516;19;20423;-57
2021/09/10 07:00:47;;;;;;;152.47;67.90;;;;;;;17.65;100.00;100927.97;7401126;19;20392;-53
2021/09/10 07:03:17;;;;;;;138.63;66.60;;;;;;;17.67;100.00;100931.47;7398344;19;20415;-56
2021/09/10 07:05:47;;;;;;;143.30;66.10;;;;;;;17.73;100.00;100936.78;7400032;19;20392;-56
2021/09/10 07:08:16;;;;;;;141.90;65.30;;;;;;;17.63;100.00;100946.19;7399869;19;20435;-55
2021/09/10 07:10:48;;;;;;;168.77;66.83;;;;;;;17.62;100.00;100948.78;7400881;19;20444;-57
2021/09/10 07:13:18;;;;;;;144.40;71.10;;;;;;;17.67;100.00;100944.50;7398319;19;20602;-53
2021/09/10 07:15:47;;;;;;;137.73;65.40;;;;;;;17.67;100.00;100947.13;7399013;19;20881;-56
2021/09/10 07:18:17;;;;;;;128.93;67.07;;;;;;;17.60;100.00;100951.38;7397239;19;20435;-57
2021/09/10 07:20:46;;;;;;;127.13;60.43;;;;;;;17.63;100.00;100954.03;7400500;19;20467;-55
2021/09/10 07:23:16;;;;;;;110.03;55.07;;;;;;;17.74;100.00;100945.50;7397965;19;20924;-58
2021/09/10 07:25:45;;;;;;;267.73;75.80;;;;;;;17.78;100.00;100942.06;7399354;19;20394;-57
2021/09/10 07:28:17;;;;;;;133.03;62.50;;;;;;;17.73;100.00;100943.75;7398958;19;20423;-59
2021/09/10 07:30:47;;;;;;;165.90;64.37;;;;;;;17.71;100.00;100940.22;7400251;19;20455;-55
2021/09/10 07:33:16;;;;;;;123.67;60.50;;;;;;;17.50;100.00;100945.13;7397313;19;20499;-51
2021/09/10 07:35:46;;;;;;;124.87;59.77;;;;;;;17.49;100.00;100947.72;7398740;19;20412;-56
2021/09/10 07:38:15;;;;;;;127.60;61.83;;;;;;;17.58;100.00;100947.84;7399352;19;20419;-57
2021/09/10 07:40:45;;;;;;;115.63;60.07;;;;;;;17.53;100.00;100944.28;7399905;19;20846;-53
2021/09/10 07:43:17;;;;;;;122.07;63.20;;;;;;;17.49;100.00;100952.94;7383348;19;20495;-58
2021/09/10 07:45:46;;;;;;;126.50;63.30;;;;;;;17.53;100.00;100966.03;7398611;19;20447;-57
2021/09/10 07:48:16;;;;;;;147.80;70.07;;;;;;;17.62;100.00;100977.47;7398603;19;20402;-58
2021/09/10 07:50:45;;;;;;;145.57;64.43;;;;;;;17.57;100.00;100982.63;7399276;19;20387;-56
2021/09/10 07:53:15;;;;;;;146.13;68.10;;;;;;;17.62;100.00;100987.91;7396615;19;20419;-58
2021/09/10 07:55:44;;;;;;;132.07;65.33;;;;;;;17.59;100.00;100999.16;7398431;19;20399;-56
2021/09/10 07:58:16;;;;;;;124.17;61.73;;;;;;;17.55;100.00;100997.38;7392117;19;20423;-56
2021/09/10 08:00:46;;;;;;;121.47;59.40;;;;;;;17.54;100.00;100995.63;7399350;19;20392;-53
2021/09/10 08:03:15;;;;;;;125.60;61.57;;;;;;;17.53;100.00;100999.06;7344619;19;20445;-55
2021/09/10 08:05:45;;;;;;;119.73;61.57;;;;;;;17.56;100.00;101006.94;7398242;19;20392;-57
2021/09/10 08:08:14;;;;;;;117.80;58.27;;;;;;;17.56;100.00;101004.34;7394829;19;20418;-59
2021/09/10 08:10:44;;;;;;;125.43;60.10;;;;;;;17.62;100.00;101014.88;7398887;19;20388;-55
2021/09/10 08:13:13;;;;;;;135.40;64.90;;;;;;;17.73;100.00;101014.19;7390163;19;20439;-54
2021/09/10 08:15:45;;;;;;;145.17;63.67;;;;;;;17.87;100.00;101007.44;7398035;19;20387;-57
2021/09/10 08:18:15;;;;;;;149.77;67.10;;;;;;;17.93;100.00;101017.97;7398103;19;20430;-61
2021/09/10 08:20:44;;;;;;;144.67;67.00;;;;;;;17.90;100.00;101022.28;7398473;19;20449;-60
2021/09/10 08:23:14;;;;;;;128.80;63.70;;;;;;;17.83;100.00;101034.34;7389138;19;20772;-56
2021/09/10 08:25:47;;;;;;;121.60;58.93;;;;;;;17.84;100.00;101036.09;7397375;19;20413;-58
2021/09/10 08:28:16;;;;;;;100.27;55.50;;;;;;;17.81;100.00;101039.53;7398067;19;20757;-61
2021/09/10 08:30:48;;;;;;;100.77;53.93;;;;;;;17.80;100.00;101047.34;7406679;19;20905;-58
2021/09/10 08:33:19;;;;;;;116.93;56.07;;;;;;;17.79;100.00;101043.84;7402771;19;20418;-57
2021/09/10 08:35:48;;;;;;;108.70;56.30;;;;;;;17.79;100.00;101054.28;7402097;19;20872;-51
2021/09/10 08:38:18;;;;;;;130.57;58.53;;;;;;;17.76;100.00;101049.03;7404902;19;20479;-54
2021/09/10 08:40:49;;;;;;;103.67;52.00;;;;;;;17.68;100.00;101050.63;7406004;19;20402;-57
2021/09/10 08:43:20;;;;;;;106.07;58.47;;;;;;;17.81;100.00;101054.31;7402494;19;20526;-57
2021/09/10 08:45:53;;;;;;;116.23;57.20;;;;;;;17.80;100.00;101050.81;7397411;19;20405;-58
2021/09/10 08:48:24;;;;;;;102.57;53.47;;;;;;;17.73;100.00;101053.31;7405084;19;20404;-59
2021/09/10 08:50:53;;;;;;;112.37;54.97;;;;;;;17.75;100.00;101054.22;7398643;19;20388;-52
2021/09/10 08:53:27;;;;;;;101.63;54.73;;;;;;;17.74;100.00;101062.91;7402591;19;20411;-55
2021/09/10 08:55:57;;;;;;;103.90;53.77;;;;;;;17.70;100.00;101071.53;7395017;19;20390;-53
2021/09/10 08:58:27;;;;;;;108.10;54.17;;;;;;;17.65;100.00;101074.91;7404800;19;20735;-58
2021/09/10 09:01:03;;;;;;;95.47;48.80;;;;;;;17.60;100.00;101065.28;7398549;19;20375;-59
2021/09/10 09:03:34;;;;;;;80.23;43.23;;;;;;;17.51;100.00;101058.16;7401259;19;20435;-58
2021/09/10 09:06:04;;;;;;;87.30;45.57;;;;;;;17.55;100.00;101050.41;7397188;19;20455;-56
2021/09/10 09:08:37;;;;;;;92.80;48.10;;;;;;;17.68;100.00;101046.28;7402267;19;20382;-61
2021/09/10 09:11:09;;;;;;;77.17;43.10;;;;;;;17.62;100.00;101029.63;7398123;19;20708;-58
2021/09/10 09:13:40;;;;;;;91.27;44.77;;;;;;;17.75;100.00;101025.53;7402177;19;20407;-57
2021/09/10 09:16:23;;;;;;;93.77;48.47;;;;;;;17.89;100.00;101015.31;7394479;19;20457;-59
2021/09/10 09:18:54;;;;;;;74.83;42.80;;;;;;;17.68;100.00;101020.19;7404587;19;20454;-55
2021/09/10 09:21:26;;;;;;;79.53;42.73;;;;;;;17.66;100.00;101024.53;7397082;19;20424;-64
2021/09/10 09:23:58;;;;;;;78.37;41.20;;;;;;;17.70;100.00;101020.22;7403255;19;20656;-59
2021/09/10 09:26:29;;;;;;;74.23;39.47;;;;;;;17.80;100.00;101016.03;7396749;19;20455;-62
2021/09/10 09:29:08;;;;;;;87.77;42.73;;;;;;;17.81;100.00;101007.34;7404264;19;20699;-61
2021/09/10 09:31:41;;;;;;;59.77;35.90;;;;;;;17.70;100.00;100999.34;7396642;19;20780;-60
2021/09/10 09:34:11;;;;;;;65.70;38.80;;;;;;;17.68;100.00;101001.94;7403652;19;20391;-56
2021/09/10 09:36:54;;;;;;;67.27;37.67;;;;;;;17.64;100.00;100997.50;7396271;19;20941;-56
2021/09/10 09:39:24;;;;;;;62.10;35.60;;;;;;;17.78;100.00;100996.84;7403118;19;20443;-60
2021/09/10 09:41:53;;;;;;;50.57;30.40;;;;;;;17.74;100.00;100989.84;7394170;19;20436;-62
2021/09/10 09:44:25;;;;;;;53.20;30.77;;;;;;;17.71;100.00;100985.47;7403647;19;20380;-59
2021/09/10 09:47:02;;;;;;;61.43;33.30;;;;;;;17.83;100.00;100983.91;7395713;19;20414;-59
2021/09/10 09:49:33;;;;;;;64.87;34.33;;;;;;;17.83;100.00;100976.94;7403624;19;20392;-59
2021/09/10 09:52:04;;;;;;;185.30;119.00;;;;;;;17.89;100.00;100961.38;7395525;19;20423;-59
2021/09/10 09:54:34;;;;;;;63.63;37.53;;;;;;;17.78;100.00;100958.59;7403647;19;20403;-61
2021/09/10 09:57:04;;;;;;;48.47;29.50;;;;;;;17.74;100.00;100969.84;7395151;19;20732;-58
2021/09/10 09:59:35;;;;;;;45.07;27.60;;;;;;;17.84;100.00;100960.41;7402294;19;20860;-62
2021/09/10 10:02:07;;;;;;;47.80;30.00;;;;;;;17.66;100.00;100971.44;7395041;19;20490;-56
2021/09/10 10:04:37;;;;;;;32.80;21.50;;;;;;;17.59;100.00;100980.03;7403409;19;20396;-60
2021/09/10 10:07:07;;;;;;;34.67;22.27;;;;;;;17.52;100.00;100972.13;7395002;19;20685;-62
2021/09/10 10:09:38;;;;;;;64.90;39.80;;;;;;;17.82;100.00;100967.34;7403026;19;20388;-55
2021/09/10 10:12:08;;;;;;;58.40;33.90;;;;;;;17.97;100.00;100953.66;7394208;19;20889;-57
2021/09/10 10:14:39;;;;;;;66.33;38.60;;;;;;;18.05;100.00;100946.84;7402038;19;20886;-63
2021/09/10 10:17:38;;;;;;;71.73;44.57;;;;;;;18.08;100.00;100943.38;7394408;19;20491;-60
2021/09/10 10:20:08;;;;;;;39.00;26.13;;;;;;;17.84;100.00;100954.34;7402195;19;20447;-63
2021/09/10 10:22:40;;;;;;;37.83;22.73;;;;;;;17.61;100.00;100971.38;7397914;19;20419;-62
2021/09/10 10:25:10;;;;;;;34.93;21.90;;;;;;;17.53;100.00;100981.69;7402610;19;20720;-55
2021/09/10 10:27:46;;;;;;;37.67;23.97;;;;;;;17.65;100.00;100996.66;7397681;19;20415;-59
2021/09/10 10:30:49;;;;;;;35.00;23.00;;;;;;;17.59;100.00;100996.56;7402109;19;20392;-53
2021/09/10 10:33:29;;;;;;;29.70;19.80;;;;;;;17.41;100.00;101008.47;7397160;19;20459;-59
2021/09/10 10:35:59;;;;;;;20.27;14.97;;;;;;;17.29;100.00;101013.44;7396310;19;20393;-58
2021/09/10 10:38:28;;;;;;;31.53;18.27;;;;;;;17.38;100.00;101007.53;7402213;19;20380;-54
2021/09/10 10:40:58;;;;;;;25.43;18.67;;;;;;;17.30;100.00;101009.09;7402745;19;20914;-60
2021/09/10 10:43:30;;;;;;;127.33;88.03;;;;;;;17.51;100.00;101006.00;7399532;19;20415;-58
2021/09/10 10:46:04;;;;;;;29.00;20.03;;;;;;;17.52;100.00;101005.13;7397572;19;20435;-54
2021/09/10 10:48:52;;;;;;;24.60;19.00;;;;;;;17.51;100.00;101006.00;7401928;19;20391;-61
2021/09/10 10:51:52;;;;;;;26.63;15.20;;;;;;;17.49;100.00;100998.13;7386071;19;20435;-61
2021/09/10 10:54:30;;;;;;;28.97;17.53;;;;;;;17.68;100.00;100983.69;7400677;19;20444;-60
2021/09/10 10:57:03;;;;;;;32.33;21.77;;;;;;;17.81;100.00;100970.81;7395805;19;20423;-61
2021/09/10 10:59:34;;;;;;;31.77;18.10;;;;;;;17.94;100.00;100967.53;7401118;19;20464;-59
2021/09/10 11:02:20;;;;;;;28.07;17.37;;;;;;;17.99;100.00;100948.47;7396158;19;20435;-61
2021/09/10 11:04:53;;;;;;;30.87;16.83;;;;;;;18.01;100.00;100951.97;7401336;19;20392;-56
2021/09/10 11:07:23;;;;;;;30.17;18.90;;;;;;;17.94;100.00;100964.94;7396636;19;20494;-58
2021/09/10 11:09:59;;;;;;;27.20;17.00;;;;;;;18.00;100.00;100971.94;7400950;19;20394;-53
2021/09/10 11:12:29;;;;;;;21.00;14.80;;;;;;;17.99;100.00;100974.56;7395836;19;20486;-62
2021/09/10 11:14:59;;;;;;;20.83;14.20;;;;;;;17.93;100.00;100973.63;7400579;19;20456;-56